Time;durP1;ratioP1;P1;durP2;ratioP2;P2;SDS_P1;SDS_P2;PMS_P1;PMS_P2;Temp;Humidity;BMP_temperature;BMP_pressure;BME280_temperature;BME280_humidity;BME280_pressure;Samples;Min_cycle;Max_cycle;Signal;HPM_P1;HPM_P2
2024/01/05 00:02:07;;;;;;;6.27;2.57;;;;;;;5.51;54.55;99412.28;5035145;27;97429;-79
2024/01/05 00:04:32;;;;;;;7.47;3.42;;;;;;;5.36;54.47;99383.16;5024247;27;98082;-80
2024/01/05 00:06:57;;;;;;;5.97;2.57;;;;;;;5.55;54.03;99393.91;5023454;27;97408;-79
2024/01/05 00:09:23;;;;;;;4.60;2.67;;;;;;;5.64;54.29;99416.22;5015718;27;96876;-79
2024/01/05 00:11:49;;;;;;;5.07;2.60;;;;;;;5.62;54.64;99420.63;5000378;27;97005;-79
2024/01/05 00:14:14;;;;;;;4.95;2.53;;;;;;;5.54;54.40;99423.44;5032659;27;101880;-79
2024/01/05 00:16:40;;;;;;;4.43;2.60;;;;;;;5.31;54.78;99395.44;5033727;27;98048;-79
2024/01/05 00:19:05;;;;;;;3.77;2.20;;;;;;;5.38;54.63;99412.63;5016399;27;97129;-79
2024/01/05 00:21:31;;;;;;;3.77;2.23;;;;;;;5.43;54.96;99418.53;5017575;27;96762;-79
2024/01/05 00:23:56;;;;;;;4.72;2.25;;;;;;;5.43;55.15;99422.88;5009073;27;101090;-80
2024/01/05 00:26:22;;;;;;;4.57;2.50;;;;;;;5.57;54.85;99446.78;5034061;27;97968;-79
2024/01/05 00:28:49;;;;;;;5.38;2.67;;;;;;;5.39;55.28;99453.34;4999570;27;96783;-79
2024/01/05 00:31:15;;;;;;;4.73;2.40;;;;;;;5.49;54.79;99461.75;5013188;28;97281;-80
2024/01/05 00:33:41;;;;;;;6.10;2.90;;;;;;;5.31;54.89;99444.88;5032362;27;97356;-79
2024/01/05 00:36:11;;;;;;;4.90;2.60;;;;;;;5.40;54.59;99444.63;5014740;27;101381;-80
2024/01/05 00:38:37;;;;;;;5.90;2.73;;;;;;;5.56;54.63;99472.88;5016537;27;96777;-80
2024/01/05 00:41:04;;;;;;;4.07;2.40;;;;;;;5.49;54.77;99466.13;5033297;27;97209;-79
2024/01/05 00:43:29;;;;;;;4.77;2.60;;;;;;;5.30;54.57;99437.13;5015564;27;99572;-80
2024/01/05 00:45:55;;;;;;;5.50;2.90;;;;;;;5.36;54.49;99450.84;5032843;27;97827;-79
2024/01/05 00:48:21;;;;;;;4.57;2.43;;;;;;;5.45;54.66;99462.75;5033486;27;97244;-79
2024/01/05 00:50:46;;;;;;;4.53;2.50;;;;;;;5.47;54.50;99463.56;5013704;27;96913;-79
2024/01/05 00:53:12;;;;;;;5.67;2.93;;;;;;;5.41;54.94;99462.00;5011957;28;101618;-80
2024/01/05 00:55:37;;;;;;;4.35;2.20;;;;;;;5.45;53.88;99444.53;5007080;27;97787;-79
2024/01/05 00:58:04;;;;;;;4.33;2.67;;;;;;;5.50;54.33;99460.00;5015843;27;98011;-79
2024/01/05 01:00:29;;;;;;;7.35;2.45;;;;;;;5.44;54.59;99461.91;5015924;27;96994;-79
2024/01/05 01:02:55;;;;;;;4.07;2.63;;;;;;;5.38;53.95;99448.19;5015607;27;101710;-80
2024/01/05 01:05:21;;;;;;;4.23;2.43;;;;;;;5.46;54.46;99467.06;5012209;27;101543;-79
2024/01/05 01:07:47;;;;;;;5.30;2.47;;;;;;;5.47;54.72;99458.38;4997129;28;96763;-79
2024/01/05 01:10:12;;;;;;;4.87;2.67;;;;;;;5.39;54.54;99460.31;5010375;27;96955;-79
2024/01/05 01:12:38;;;;;;;5.73;2.53;;;;;;;5.43;54.71;99464.53;5019699;27;97594;-79
2024/01/05 01:15:04;;;;;;;4.77;2.43;;;;;;;5.21;54.92;99438.25;5011993;28;101714;-79
2024/01/05 01:17:30;;;;;;;8.27;3.67;;;;;;;5.42;54.89;99468.88;5016214;27;96774;-79
2024/01/05 01:19:56;;;;;;;4.40;2.80;;;;;;;5.43;54.54;99470.59;5032664;27;97484;-79
2024/01/05 01:22:21;;;;;;;4.27;2.50;;;;;;;5.32;54.20;99453.53;5032193;27;98357;-79
2024/01/05 01:24:47;;;;;;;3.60;2.10;;;;;;;5.39;54.42;99463.75;5032041;27;98030;-79
2024/01/05 01:27:14;;;;;;;5.93;2.60;;;;;;;5.39;54.62;99478.53;5045650;27;96705;-79
2024/01/05 01:29:39;;;;;;;6.57;2.90;;;;;;;5.42;54.35;99487.09;5031974;27;97179;-79
2024/01/05 01:32:05;;;;;;;5.50;2.43;;;;;;;5.34;54.60;99468.22;5008522;27;101256;-79
2024/01/05 01:34:31;;;;;;;4.83;3.10;;;;;;;5.32;54.75;99462.19;5011614;28;98046;-79
2024/01/05 01:36:56;;;;;;;6.43;2.87;;;;;;;5.40;54.69;99475.03;5015348;27;96736;-79
2024/01/05 01:39:21;;;;;;;6.23;3.03;;;;;;;5.34;54.91;99462.19;5015513;27;96927;-79
2024/01/05 01:41:47;;;;;;;9.23;3.23;;;;;;;5.44;54.54;99468.88;5015387;27;100978;-79
2024/01/05 01:44:13;;;;;;;8.40;3.03;;;;;;;5.26;54.87;99453.72;5014263;27;101109;-79
2024/01/05 01:46:38;;;;;;;7.80;2.80;;;;;;;5.39;54.67;99468.13;5015048;27;97683;-79
2024/01/05 01:49:04;;;;;;;4.77;3.10;;;;;;;5.47;54.32;99471.38;4994888;28;97380;-79
2024/01/05 01:51:31;;;;;;;5.53;2.03;;;;;;;5.49;54.80;99466.13;4995407;28;101320;-79
2024/01/05 01:54:06;;;;;;;4.73;2.30;;;;;;;5.32;54.32;99449.19;4987463;28;101945;-79
2024/01/05 01:56:32;;;;;;;4.67;2.60;;;;;;;5.05;54.50;99414.34;5029462;27;96944;-79
2024/01/05 01:58:58;;;;;;;5.77;2.67;;;;;;;5.32;54.60;99475.22;4995770;27;96804;-79
2024/01/05 02:01:24;;;;;;;9.10;2.23;;;;;;;5.40;54.22;99469.81;5014875;27;101279;-79
2024/01/05 02:03:50;;;;;;;5.47;2.43;;;;;;;5.44;54.09;99467.09;5011866;27;101652;-79
2024/01/05 02:06:16;;;;;;;2.77;2.10;;;;;;;5.35;54.07;99464.75;5031748;27;97274;-80
2024/01/05 02:08:43;;;;;;;5.03;2.37;;;;;;;5.36;54.58;99484.66;5029666;27;96828;-79
2024/01/05 02:11:08;;;;;;;5.63;2.97;;;;;;;5.30;54.38;99474.41;5014517;27;101553;-79
2024/01/05 02:13:34;;;;;;;7.03;2.50;;;;;;;5.44;54.70;99487.09;5014064;27;101796;-79
2024/01/05 02:16:00;;;;;;;7.20;2.93;;;;;;;5.38;54.71;99484.63;5014895;27;96756;-79
2024/01/05 02:18:25;;;;;;;6.45;2.53;;;;;;;5.40;54.58;99488.03;5012156;27;97439;-79
2024/01/05 02:20:51;;;;;;;6.87;3.27;;;;;;;5.34;54.81;99490.81;5009046;28;97487;-79
2024/01/05 02:23:24;;;;;;;6.70;3.30;;;;;;;5.48;54.63;99498.25;4991323;27;100077;-79
2024/01/05 02:25:49;;;;;;;7.90;3.53;;;;;;;5.45;54.71;99486.19;4997772;27;97239;-79
2024/01/05 02:28:15;;;;;;;6.65;3.25;;;;;;;5.33;54.85;99463.94;5014011;27;97171;-78
2024/01/05 02:30:40;;;;;;;10.63;3.67;;;;;;;5.48;54.60;99477.44;5014162;27;101202;-78
2024/01/05 02:33:06;;;;;;;8.60;3.58;;;;;;;5.48;54.30;99475.69;5002850;27;101356;-79
2024/01/05 02:35:32;;;;;;;13.45;5.22;;;;;;;5.45;54.48;99476.63;5013313;27;97855;-80
2024/01/05 02:37:57;;;;;;;14.37;5.27;;;;;;;5.34;54.58;99470.84;5013764;27;97494;-79
2024/01/05 02:40:23;;;;;;;7.07;3.17;;;;;;;5.36;54.60;99469.06;5014070;27;101113;-80
2024/01/05 02:42:48;;;;;;;8.47;3.97;;;;;;;5.36;54.95;99474.25;5031231;27;97649;-79
2024/01/05 02:45:20;;;;;;;6.40;3.60;;;;;;;5.18;55.09;99459.13;5014087;27;96700;-79
2024/01/05 02:47:49;;;;;;;8.90;3.47;;;;;;;5.14;54.99;99462.69;5013782;27;97038;-79
2024/01/05 02:50:15;;;;;;;5.97;2.90;;;;;;;5.23;54.51;99465.03;5005466;28;101293;-79
2024/01/05 02:52:41;;;;;;;5.10;2.90;;;;;;;5.31;54.76;99477.88;5013318;27;102058;-79
2024/01/05 02:55:07;;;;;;;6.63;2.47;;;;;;;5.31;54.87;99465.72;5030866;27;96740;-79
2024/01/05 02:57:33;;;;;;;5.23;2.57;;;;;;;5.35;54.24;99469.06;5031943;27;96921;-79
2024/01/05 02:59:58;;;;;;;4.87;2.37;;;;;;;5.40;54.11;99475.88;4993197;28;101539;-79
2024/01/05 03:02:24;;;;;;;5.80;2.53;;;;;;;5.36;54.16;99484.66;5009881;27;101704;-79
2024/01/05 03:04:51;;;;;;;6.67;3.43;;;;;;;5.38;54.55;99485.50;4996648;27;97006;-79
2024/01/05 03:07:17;;;;;;;5.77;2.77;;;;;;;5.29;54.36;99475.28;5013077;27;96867;-79
2024/01/05 03:09:43;;;;;;;5.63;2.50;;;;;;;5.36;54.43;99492.47;5012955;27;101789;-79
2024/01/05 03:12:09;;;;;;;4.03;2.70;;;;;;;5.29;54.74;99477.91;5013928;27;101406;-79
2024/01/05 03:14:34;;;;;;;3.40;2.10;;;;;;;5.35;54.63;99489.91;5013902;27;96737;-79
2024/01/05 03:17:01;;;;;;;4.93;2.53;;;;;;;5.20;54.71;99457.31;5014109;27;97271;-79
2024/01/05 03:19:27;;;;;;;6.30;2.37;;;;;;;5.24;54.33;99458.97;5013763;27;102095;-78
2024/01/05 03:21:53;;;;;;;4.47;2.30;;;;;;;5.35;54.16;99469.06;5030859;27;97865;-78
2024/01/05 03:24:18;;;;;;;5.20;2.67;;;;;;;5.31;54.35;99477.88;5009218;28;97076;-78
2024/01/05 03:26:44;;;;;;;4.30;2.20;;;;;;;5.28;53.95;99467.53;5009989;27;97002;-78
2024/01/05 03:29:09;;;;;;;4.50;2.20;;;;;;;5.33;53.77;99474.34;5013578;27;98019;-78
2024/01/05 03:31:35;;;;;;;5.47;2.60;;;;;;;5.33;53.67;99455.28;4997261;27;100243;-78
2024/01/05 03:34:00;;;;;;;4.93;2.20;;;;;;;5.32;53.45;99461.34;5030297;27;97415;-78
2024/01/05 03:36:26;;;;;;;3.23;2.13;;;;;;;5.31;53.51;99470.06;5007332;27;96810;-78
2024/01/05 03:38:51;;;;;;;6.03;2.17;;;;;;;5.26;53.34;99456.31;4998015;28;101133;-78
2024/01/05 03:41:17;;;;;;;3.63;2.60;;;;;;;5.13;54.12;99438.41;5008417;27;97837;-78
2024/01/05 03:43:43;;;;;;;4.60;2.27;;;;;;;5.08;53.54;99437.69;5013626;27;97297;-78
2024/01/05 03:46:12;;;;;;;5.50;3.20;;;;;;;5.19;53.46;99456.47;5011709;27;96946;-78
2024/01/05 03:48:40;;;;;;;3.40;2.07;;;;;;;5.27;53.36;99473.66;5029615;27;97433;-78
2024/01/05 03:51:06;;;;;;;5.13;2.43;;;;;;;5.30;53.63;99470.97;5013504;27;101388;-78
2024/01/05 03:53:31;;;;;;;5.80;2.57;;;;;;;5.41;53.73;99476.72;4993518;27;97062;-78
2024/01/05 03:56:00;;;;;;;7.23;2.70;;;;;;;5.28;53.25;99473.59;5026079;27;97052;-77
2024/01/05 03:58:26;;;;;;;6.40;2.80;;;;;;;5.35;53.52;99484.69;4996474;27;101545;-78
2024/01/05 04:00:51;;;;;;;5.13;2.50;;;;;;;5.20;52.99;99445.16;5012776;27;97956;-78
2024/01/05 04:03:17;;;;;;;3.73;2.30;;;;;;;5.20;53.72;99473.78;4996500;27;97748;-78
2024/01/05 04:05:45;;;;;;;4.23;2.20;;;;;;;5.15;53.69;99472.22;5011242;27;97309;-78
2024/01/05 04:08:12;;;;;;;4.90;2.20;;;;;;;5.01;53.85;99451.75;4996748;27;101337;-78
2024/01/05 04:10:37;;;;;;;5.97;2.80;;;;;;;5.07;53.60;99474.16;5010325;27;101392;-78
2024/01/05 04:13:03;;;;;;;6.63;2.87;;;;;;;4.93;53.91;99456.28;5002031;27;97461;-79
2024/01/05 04:15:30;;;;;;;5.90;2.60;;;;;;;4.85;54.13;99476.41;5029438;27;97376;-79
2024/01/05 04:17:56;;;;;;;5.43;2.67;;;;;;;4.73;54.65;99475.81;5010346;28;98793;-78
2024/01/05 04:20:21;;;;;;;6.13;2.83;;;;;;;4.61;55.00;99475.25;4994101;27;101029;-78
2024/01/05 04:22:47;;;;;;;8.00;2.63;;;;;;;4.61;55.12;99489.09;5016492;27;96805;-78
2024/01/05 04:25:12;;;;;;;7.13;2.87;;;;;;;4.36;55.12;99457.59;5012572;28;97621;-78
2024/01/05 04:27:38;;;;;;;5.13;2.77;;;;;;;4.35;55.76;99476.69;5013075;27;100838;-79
2024/01/05 04:30:05;;;;;;;5.17;2.27;;;;;;;4.19;56.40;99485.69;5016365;27;101712;-78
2024/01/05 04:32:30;;;;;;;4.87;2.80;;;;;;;4.03;56.79;99491.22;5030052;27;97041;-78
2024/01/05 04:34:56;;;;;;;6.07;2.33;;;;;;;4.00;57.11;99483.50;5015957;27;97369;-78
2024/01/05 04:37:21;;;;;;;5.17;2.80;;;;;;;3.88;56.98;99477.72;5015489;27;100998;-78
2024/01/05 04:39:47;;;;;;;6.70;2.80;;;;;;;4.05;57.59;99499.84;5015428;27;101707;-78
2024/01/05 04:42:12;;;;;;;3.13;2.00;;;;;;;4.11;57.40;99504.06;5016463;27;98081;-78
2024/01/05 04:44:38;;;;;;;4.93;2.63;;;;;;;4.21;57.50;99504.72;5013602;27;97261;-77
2024/01/05 04:47:04;;;;;;;5.33;2.83;;;;;;;4.28;56.76;99501.13;5022831;27;97627;-78
2024/01/05 04:49:31;;;;;;;5.13;2.83;;;;;;;4.05;56.83;99506.78;5016103;27;97952;-78
2024/01/05 04:51:57;;;;;;;4.07;2.30;;;;;;;4.05;56.90;99499.84;5013024;28;97543;-78
2024/01/05 04:54:22;;;;;;;3.00;2.37;;;;;;;4.12;57.05;99513.56;5010861;27;96882;-78
2024/01/05 04:56:48;;;;;;;4.67;2.20;;;;;;;3.97;56.91;99490.50;5031809;27;97628;-78
2024/01/05 04:59:13;;;;;;;6.30;2.80;;;;;;;3.98;57.08;99476.63;5020931;27;98291;-78
2024/01/05 05:01:39;;;;;;;5.90;2.47;;;;;;;4.05;57.14;99499.84;5011382;27;97228;-78
2024/01/05 05:04:04;;;;;;;3.53;2.50;;;;;;;4.00;57.25;99493.88;5020618;27;97242;-79
2024/01/05 05:06:30;;;;;;;5.13;2.53;;;;;;;3.95;56.92;99482.72;5010735;27;101956;-80
2024/01/05 05:08:55;;;;;;;5.13;2.80;;;;;;;3.96;56.96;99489.66;5012603;27;101279;-79
2024/01/05 05:11:21;;;;;;;4.13;2.40;;;;;;;4.16;57.29;99483.16;4996988;27;96775;-79
2024/01/05 05:13:46;;;;;;;4.40;2.40;;;;;;;3.99;57.24;99488.72;4997226;27;96987;-80
2024/01/05 05:16:12;;;;;;;7.03;3.07;;;;;;;3.97;57.23;99470.56;5012230;27;100113;-80
2024/01/05 05:18:37;;;;;;;10.47;4.47;;;;;;;3.84;57.45;99490.75;5012333;27;97780;-80
2024/01/05 05:21:03;;;;;;;10.80;5.13;;;;;;;3.75;58.15;99470.16;5014516;27;97010;-79
2024/01/05 05:23:29;;;;;;;10.57;5.23;;;;;;;3.91;57.97;99475.91;5011559;27;97359;-81
2024/01/05 05:25:54;;;;;;;9.87;4.90;;;;;;;4.05;57.59;99486.84;5010347;28;101488;-81
2024/01/05 05:28:20;;;;;;;10.37;5.17;;;;;;;4.15;57.48;99482.31;5024193;27;97401;-79
2024/01/05 05:30:45;;;;;;;9.43;4.53;;;;;;;4.19;57.08;99483.97;5016003;27;97273;-80
2024/01/05 05:33:11;;;;;;;12.80;4.87;;;;;;;4.08;57.18;99472.97;5021275;27;97230;-80
2024/01/05 05:35:36;;;;;;;6.33;3.57;;;;;;;4.06;57.36;99483.38;5006496;27;101522;-80
2024/01/05 05:38:03;;;;;;;9.87;3.63;;;;;;;3.97;57.55;99478.38;4995366;27;102032;-80
2024/01/05 05:40:30;;;;;;;11.37;4.07;;;;;;;3.72;58.40;99474.53;4991888;27;97390;-80
2024/01/05 05:42:55;;;;;;;6.80;3.00;;;;;;;3.52;58.98;99452.44;5017738;27;97454;-81
2024/01/05 05:45:21;;;;;;;6.23;2.67;;;;;;;3.45;59.55;99476.78;5021629;27;101566;-75
2024/01/05 05:47:46;;;;;;;4.27;2.90;;;;;;;3.17;60.34;99469.50;4992527;27;101555;-75
2024/01/05 05:50:13;;;;;;;4.23;2.50;;;;;;;3.12;60.17;99466.13;4998622;27;97659;-75
2024/01/05 05:52:40;;;;;;;5.47;2.70;;;;;;;3.16;60.23;99479.88;4963451;27;1228161;-77
2024/01/05 05:55:06;;;;;;;4.93;2.60;;;;;;;3.28;59.91;99482.25;5013468;27;97472;-76
2024/01/05 05:57:32;;;;;;;4.07;2.30;;;;;;;3.25;60.19;99464.16;5004031;27;101485;-76
2024/01/05 05:59:58;;;;;;;3.83;1.83;;;;;;;3.20;60.57;99486.75;5006616;27;96951;-75
2024/01/05 06:02:24;;;;;;;4.40;2.23;;;;;;;3.04;60.83;99459.38;5016493;27;96772;-78
2024/01/05 06:04:50;;;;;;;5.00;2.37;;;;;;;3.21;61.13;99479.81;5016282;27;98422;-75
2024/01/05 06:07:16;;;;;;;6.37;2.87;;;;;;;3.11;61.06;99477.41;5049658;27;97563;-81
2024/01/05 06:09:42;;;;;;;5.43;2.87;;;;;;;2.89;61.81;99469.09;5016317;27;96896;-86
2024/01/05 06:12:09;;;;;;;4.63;2.90;;;;;;;3.02;61.87;99472.34;5036649;27;96895;-87
2024/01/05 06:14:36;;;;;;;4.23;2.80;;;;;;;2.88;62.54;99450.97;5019165;27;100417;-87
2024/01/05 06:17:02;;;;;;;4.67;3.13;;;;;;;2.91;62.52;99448.34;5017038;27;101298;-88
2024/01/05 06:19:27;;;;;;;6.27;3.00;;;;;;;3.02;62.96;99461.97;5008608;27;97144;-88
2024/01/05 06:21:53;;;;;;;5.63;3.70;;;;;;;3.03;63.10;99450.72;5033078;27;96843;-87
2024/01/05 06:24:18;;;;;;;4.53;2.60;;;;;;;2.92;63.78;99473.38;5034134;27;97919;-88
2024/01/05 06:26:44;;;;;;;10.03;3.50;;;;;;;2.94;64.03;99463.84;5017827;27;100788;-86
2024/01/05 06:29:09;;;;;;;7.10;3.53;;;;;;;2.96;63.55;99451.69;5018459;27;96836;-87
2024/01/05 06:31:35;;;;;;;6.97;3.47;;;;;;;3.04;63.82;99456.78;5027397;27;96758;-87
2024/01/05 06:34:00;;;;;;;6.07;3.30;;;;;;;2.83;63.83;99461.44;5017156;27;98551;-87
2024/01/05 06:36:26;;;;;;;7.90;3.50;;;;;;;2.76;63.94;99466.72;5015451;27;100802;-87
2024/01/05 06:38:51;;;;;;;6.33;3.57;;;;;;;2.71;63.92;99446.94;4999917;27;97454;-87
2024/01/05 06:41:17;;;;;;;5.40;2.97;;;;;;;2.68;63.83;99438.38;5000376;27;97598;-86
2024/01/05 06:43:42;;;;;;;6.20;3.50;;;;;;;2.80;63.29;99425.19;5011603;28;101287;-78
2024/01/05 06:46:08;;;;;;;4.20;2.50;;;;;;;3.01;62.48;99455.09;5047995;27;97388;-78
2024/01/05 06:48:33;;;;;;;5.87;3.00;;;;;;;2.89;62.27;99450.09;5002372;28;96733;-79
2024/01/05 06:50:59;;;;;;;5.57;2.73;;;;;;;2.97;62.26;99447.38;5027362;27;96955;-80
2024/01/05 06:53:25;;;;;;;5.10;2.70;;;;;;;2.75;62.34;99436.53;5010372;27;100939;-79
2024/01/05 06:55:50;;;;;;;3.93;2.57;;;;;;;2.89;62.44;99435.41;5014870;27;101621;-79
2024/01/05 06:58:16;;;;;;;5.07;2.93;;;;;;;2.88;62.36;99432.81;5001079;27;97116;-79
2024/01/05 07:00:42;;;;;;;9.27;4.93;;;;;;;2.86;62.58;99413.88;4996600;27;97087;-75
2024/01/05 07:03:08;;;;;;;7.83;4.83;;;;;;;3.08;62.23;99438.53;5010741;28;101231;-73
2024/01/05 07:05:33;;;;;;;6.13;3.43;;;;;;;2.88;63.11;99431.13;5014683;27;98547;-87
2024/01/05 07:07:59;;;;;;;6.80;3.73;;;;;;;2.93;62.48;99416.31;5027047;27;97486;-86
2024/01/05 07:10:25;;;;;;;7.47;4.53;;;;;;;3.14;62.65;99442.75;5013247;27;97038;-87
2024/01/05 07:12:50;;;;;;;8.37;4.10;;;;;;;3.11;62.76;99435.03;5016193;27;100136;-85
2024/01/05 07:15:16;;;;;;;7.67;4.00;;;;;;;2.92;63.20;99422.38;5023450;27;97911;-86
2024/01/05 07:17:42;;;;;;;5.63;3.47;;;;;;;2.95;63.51;99437.88;5008593;27;96768;-86
2024/01/05 07:20:09;;;;;;;5.83;3.93;;;;;;;3.01;63.02;99417.94;5016389;27;96783;-86
2024/01/05 07:22:36;;;;;;;6.40;4.00;;;;;;;3.20;62.86;99424.50;5016064;27;100480;-86
2024/01/05 07:25:01;;;;;;;13.80;4.77;;;;;;;3.17;63.33;99433.19;5013308;28;99822;-86
2024/01/05 07:27:27;;;;;;;7.83;4.33;;;;;;;3.13;63.60;99441.91;5004702;28;97473;-86
2024/01/05 07:29:55;;;;;;;7.57;4.60;;;;;;;3.10;63.77;99434.16;5030443;27;96922;-86
2024/01/05 07:32:20;;;;;;;9.47;5.60;;;;;;;2.87;64.52;99410.38;5012590;27;97222;-86
2024/01/05 07:34:46;;;;;;;6.83;5.00;;;;;;;2.93;65.11;99434.47;5003938;27;100766;-86
2024/01/05 07:37:12;;;;;;;7.30;5.20;;;;;;;2.91;65.22;99423.28;5017296;27;96802;-81
2024/01/05 07:39:38;;;;;;;13.50;6.13;;;;;;;2.89;66.01;99442.34;5027916;27;97114;-79
2024/01/05 07:42:04;;;;;;;12.77;6.70;;;;;;;2.74;66.47;99438.25;5013237;27;97777;-78
2024/01/05 07:44:30;;;;;;;10.47;6.13;;;;;;;2.77;66.97;99435.63;5024718;27;101457;-81
2024/01/05 07:46:55;;;;;;;8.23;6.07;;;;;;;2.74;66.48;99417.53;5047260;27;97097;-88
2024/01/05 07:49:21;;;;;;;11.90;7.30;;;;;;;2.83;66.50;99399.22;5030392;27;96926;-86
2024/01/05 07:51:46;;;;;;;11.40;7.30;;;;;;;2.70;67.07;99408.91;4991561;27;101504;-81
2024/01/05 07:54:12;;;;;;;10.27;6.30;;;;;;;2.68;66.41;99402.94;5004946;27;99249;-81
2024/01/05 07:56:38;;;;;;;13.87;7.13;;;;;;;2.89;66.12;99444.94;5013174;27;96820;-81
2024/01/05 07:59:04;;;;;;;12.60;7.43;;;;;;;2.84;65.87;99450.16;5011584;27;96955;-81
2024/01/05 08:01:29;;;;;;;10.67;6.90;;;;;;;3.03;65.52;99452.47;5029296;27;97576;-81
2024/01/05 08:03:55;;;;;;;12.97;6.40;;;;;;;3.12;65.20;99453.16;5028506;27;97883;-80
2024/01/05 08:06:20;;;;;;;12.33;6.63;;;;;;;3.13;64.86;99448.81;5008080;27;98440;-81
2024/01/05 08:08:46;;;;;;;10.00;6.30;;;;;;;3.10;64.92;99435.91;5029536;27;96816;-82
2024/01/05 08:11:12;;;;;;;9.37;6.07;;;;;;;3.06;64.67;99424.75;5017205;27;103127;-82
2024/01/05 08:13:40;;;;;;;9.87;6.47;;;;;;;3.04;65.05;99430.84;5045689;27;96945;-78
2024/01/05 08:16:06;;;;;;;8.93;6.33;;;;;;;2.82;65.20;99412.19;5028495;27;97245;-79
2024/01/05 08:18:32;;;;;;;10.73;6.57;;;;;;;2.99;64.93;99435.25;5029744;27;96857;-80
2024/01/05 08:20:57;;;;;;;9.27;5.70;;;;;;;3.18;64.69;99436.63;5015720;28;97549;-80
2024/01/05 08:23:22;;;;;;;7.93;5.27;;;;;;;3.04;63.85;99423.91;5013130;27;97421;-80
2024/01/05 08:25:48;;;;;;;7.73;5.10;;;;;;;3.13;64.01;99431.53;5018664;28;96845;-79
2024/01/05 08:28:13;;;;;;;9.57;6.03;;;;;;;3.04;64.05;99433.44;5020483;27;98642;-80
2024/01/05 08:30:42;;;;;;;9.70;5.23;;;;;;;3.10;63.64;99438.50;5014177;27;98026;-80
2024/01/05 08:33:07;;;;;;;8.23;5.43;;;;;;;2.76;63.42;99418.34;5015796;27;98073;-79
2024/01/05 08:35:36;;;;;;;7.47;4.93;;;;;;;2.93;63.08;99441.38;5014400;27;96975;-79
2024/01/05 08:38:04;;;;;;;7.47;5.03;;;;;;;2.81;63.30;99407.91;5011794;27;98462;-80
2024/01/05 08:40:30;;;;;;;7.80;4.73;;;;;;;2.92;63.50;99418.94;5022643;27;97641;-80
2024/01/05 08:42:57;;;;;;;7.37;5.20;;;;;;;3.11;63.21;99425.53;5020235;27;101502;-81
2024/01/05 08:45:22;;;;;;;8.67;5.53;;;;;;;3.29;62.22;99445.09;5013177;27;96866;-80
2024/01/05 08:47:48;;;;;;;7.77;5.27;;;;;;;3.29;62.10;99450.28;5022837;27;97019;-81
2024/01/05 08:50:16;;;;;;;7.63;4.60;;;;;;;3.14;62.42;99427.19;5000194;27;101587;-84
2024/01/05 08:52:43;;;;;;;10.00;4.37;;;;;;;3.26;62.29;99447.75;5024289;27;101675;-86
2024/01/05 08:55:09;;;;;;;6.07;4.23;;;;;;;3.03;62.36;99445.56;5016174;27;97502;-85
2024/01/05 08:57:35;;;;;;;7.03;4.33;;;;;;;3.08;62.55;99451.47;5026316;27;96911;-85
2024/01/05 09:00:00;;;;;;;5.53;3.97;;;;;;;3.11;62.94;99446.28;5014726;27;97756;-85
2024/01/05 09:02:26;;;;;;;7.70;4.40;;;;;;;3.20;62.24;99421.91;5050979;27;97505;-84
2024/01/05 09:04:51;;;;;;;9.13;5.37;;;;;;;3.27;62.04;99417.47;5014056;27;97484;-85
2024/01/05 09:07:17;;;;;;;6.70;4.00;;;;;;;3.44;61.87;99435.31;5008897;27;97156;-86
2024/01/05 09:09:42;;;;;;;7.87;4.37;;;;;;;3.54;61.94;99419.50;5010760;28;98084;-86
2024/01/05 09:12:08;;;;;;;5.63;4.10;;;;;;;3.40;61.40;99418.91;5022350;27;97575;-85
2024/01/05 09:14:33;;;;;;;7.73;4.83;;;;;;;3.33;62.19;99420.78;5022041;27;97227;-86
2024/01/05 09:16:59;;;;;;;7.50;4.60;;;;;;;3.35;62.00;99398.28;5012797;27;96972;-86
2024/01/05 09:19:24;;;;;;;10.80;5.33;;;;;;;3.36;61.89;99399.13;5034097;27;97874;-85
2024/01/05 09:21:50;;;;;;;11.57;6.03;;;;;;;3.59;61.53;99427.22;5026665;27;101609;-86
2024/01/05 09:24:15;;;;;;;15.70;6.63;;;;;;;3.53;61.43;99410.03;5034584;27;97100;-85
2024/01/05 09:26:42;;;;;;;12.77;6.63;;;;;;;3.69;61.54;99417.50;5038019;27;96821;-85
2024/01/05 09:29:07;;;;;;;7.30;4.47;;;;;;;3.68;61.41;99421.84;5046204;27;97599;-85
2024/01/05 09:31:33;;;;;;;8.50;4.77;;;;;;;3.61;62.27;99443.63;5029148;27;101271;-84
2024/01/05 09:33:59;;;;;;;6.03;4.37;;;;;;;3.72;62.03;99430.41;5014873;27;97190;-86
2024/01/05 09:36:24;;;;;;;6.90;4.43;;;;;;;3.58;61.90;99441.94;5015777;27;96910;-86
2024/01/05 09:38:50;;;;;;;7.50;4.50;;;;;;;3.39;62.34;99430.19;5014199;27;98486;-86
2024/01/05 09:41:16;;;;;;;5.00;3.70;;;;;;;3.36;62.51;99423.31;5027016;27;99008;-85
2024/01/05 09:43:43;;;;;;;5.63;4.10;;;;;;;3.52;62.93;99451.56;5016092;27;96750;-85
2024/01/05 09:46:09;;;;;;;6.77;5.10;;;;;;;3.51;62.94;99449.88;5016131;27;96893;-86
2024/01/05 09:48:35;;;;;;;7.77;5.70;;;;;;;3.46;63.51;99462.94;4997095;27;100396;-85
2024/01/05 09:51:03;;;;;;;11.90;6.10;;;;;;;3.59;63.29;99448.81;5032861;27;97467;-82
2024/01/05 09:53:29;;;;;;;7.30;5.40;;;;;;;3.46;63.66;99454.28;5030251;27;96892;-83
2024/01/05 09:55:54;;;;;;;11.30;6.30;;;;;;;3.31;64.21;99458.00;5012432;27;97582;-80
2024/01/05 09:58:21;;;;;;;9.07;6.50;;;;;;;3.20;64.86;99423.63;5028526;27;97619;-83
2024/01/05 10:00:54;;;;;;;9.57;7.10;;;;;;;3.17;65.24;99415.03;5045719;27;97923;-82
2024/01/05 10:03:22;;;;;;;8.70;6.90;;;;;;;3.49;65.41;99443.84;5010781;27;97323;-81
2024/01/05 10:05:54;;;;;;;12.33;7.57;;;;;;;3.38;64.92;99428.50;5025688;27;97376;-84
2024/01/05 10:08:23;;;;;;;10.20;7.20;;;;;;;3.61;65.09;99428.91;5008495;27;99105;-87
2024/01/05 10:10:56;;;;;;;10.80;6.53;;;;;;;3.57;64.91;99410.81;5027410;27;97940;-91
2024/01/05 10:13:22;;;;;;;9.10;6.67;;;;;;;3.68;65.24;99426.19;5029413;27;96830;-92
2024/01/05 10:15:53;;;;;;;9.07;6.57;;;;;;;3.61;65.01;99425.47;5000240;27;97243;-91
2024/01/05 10:18:18;;;;;;;11.13;6.40;;;;;;;3.58;64.92;99423.78;5022454;27;98506;-87
2024/01/05 10:20:44;;;;;;;9.33;6.43;;;;;;;3.58;65.06;99449.72;5029844;28;97236;-86
2024/01/05 10:23:09;;;;;;;10.20;6.63;;;;;;;3.49;65.82;99430.88;4995644;27;96714;-87
2024/01/05 10:25:38;;;;;;;11.50;7.13;;;;;;;3.52;65.49;99433.41;5002515;27;97040;-86
2024/01/05 10:28:20;;;;;;;12.50;6.50;;;;;;;3.53;65.55;99450.69;4993017;27;101563;-89
2024/01/05 10:30:45;;;;;;;12.35;7.47;;;;;;;3.61;65.54;99431.50;5011732;27;102079;-88
2024/01/05 10:33:11;;;;;;;10.33;7.43;;;;;;;3.76;65.23;99426.88;5011647;27;97898;-87
2024/01/05 10:35:36;;;;;;;14.13;8.73;;;;;;;3.89;64.86;99417.09;5007297;27;96786;-87
2024/01/05 10:38:11;;;;;;;11.67;7.30;;;;;;;3.98;64.92;99419.47;5014575;27;100791;-88
2024/01/05 10:40:37;;;;;;;10.70;6.83;;;;;;;3.85;65.06;99400.72;4998867;27;100283;-87
2024/01/05 10:43:09;;;;;;;9.67;6.67;;;;;;;3.77;64.90;99390.50;5012777;27;97622;-87
2024/01/05 10:45:35;;;;;;;9.98;6.85;;;;;;;3.83;65.43;99394.69;5010075;27;97844;-87
2024/01/05 10:48:04;;;;;;;11.57;7.13;;;;;;;3.70;65.45;99393.28;5019631;27;101590;-87
2024/01/05 10:50:30;;;;;;;10.90;7.03;;;;;;;3.79;65.29;99399.09;5010575;27;101717;-87
2024/01/05 10:52:57;;;;;;;12.57;7.47;;;;;;;3.91;65.43;99392.81;5015429;28;97527;-87
2024/01/05 10:55:22;;;;;;;11.80;7.87;;;;;;;3.99;65.16;99383.09;5011041;28;97691;-87
2024/01/05 10:57:48;;;;;;;10.70;7.23;;;;;;;3.68;65.71;99362.13;4978570;28;101315;-88
2024/01/05 11:00:14;;;;;;;11.03;7.60;;;;;;;3.63;66.44;99351.84;5010343;28;97969;-87
2024/01/05 11:02:42;;;;;;;9.47;6.50;;;;;;;3.75;66.13;99353.34;4993512;28;97339;-87
2024/01/05 11:05:10;;;;;;;12.27;7.37;;;;;;;3.92;66.26;99370.28;5000782;28;97248;-88
2024/01/05 11:07:36;;;;;;;12.97;7.50;;;;;;;3.80;65.86;99368.81;4985753;28;101210;-88
2024/01/05 11:10:20;;;;;;;11.27;7.60;;;;;;;3.75;66.73;99365.44;5010178;28;97931;-87
2024/01/05 11:13:15;;;;;;;12.17;8.07;;;;;;;3.70;66.70;99357.78;5009552;27;97358;-88
2024/01/05 11:16:08;;;;;;;16.37;7.87;;;;;;;3.82;66.30;99367.88;4998670;28;97981;-87
2024/01/05 11:19:02;;;;;;;13.70;8.43;;;;;;;3.73;67.19;99357.72;5003807;28;99917;-87
2024/01/05 11:22:08;;;;;;;15.17;8.60;;;;;;;3.85;66.51;99357.44;5005585;28;97416;-88
2024/01/05 11:24:34;;;;;;;14.80;9.13;;;;;;;4.05;66.08;99371.72;4991688;28;97335;-87
2024/01/05 11:27:26;;;;;;;13.60;9.40;;;;;;;4.00;66.11;99360.59;4996680;28;97480;-88
2024/01/05 11:29:53;;;;;;;13.80;9.38;;;;;;;4.04;66.41;99360.50;5010630;28;100633;-87
2024/01/05 11:32:45;;;;;;;14.87;9.03;;;;;;;4.03;66.79;99363.09;5001874;28;98315;-88
2024/01/05 11:35:16;;;;;;;14.50;10.37;;;;;;;4.15;66.39;99355.03;5007156;28;97964;-87